Time;durP1;ratioP1;P1;durP2;ratioP2;P2;SDS_P1;SDS_P2;PMS_P1;PMS_P2;Temp;Humidity;BMP_temperature;BMP_pressure;BME280_temperature;BME280_humidity;BME280_pressure;Samples;Min_cycle;Max_cycle;Signal;HPM_P1;HPM_P2
2021/09/21 00:00:42;;;;;;;13.03;9.00;;;;;;;;;;5005061;28;20209;-90
2021/09/21 00:03:46;;;;;;;9.77;7.97;;;;;;;;;;4983079;28;20185;-90
2021/09/21 00:06:50;;;;;;;10.27;8.23;;;;;;;;;;4993769;28;20181;-89
2021/09/21 00:09:54;;;;;;;13.07;7.70;;;;;;;;;;4982363;28;20560;-89
2021/09/21 00:12:59;;;;;;;11.27;8.70;;;;;;;;;;4993579;28;20194;-89
2021/09/21 00:16:03;;;;;;;9.07;7.40;;;;;;;;;;4992947;28;20201;-89
2021/09/21 00:19:08;;;;;;;11.53;8.67;;;;;;;;;;4982525;28;20209;-89
2021/09/21 00:22:12;;;;;;;9.47;7.83;;;;;;;;;;4993084;28;20185;-89
2021/09/21 00:25:17;;;;;;;12.00;8.50;;;;;;;;;;5004735;28;20174;-89
2021/09/21 00:28:21;;;;;;;10.33;8.50;;;;;;;;;;4982220;28;20256;-90
2021/09/21 00:31:31;;;;;;;10.00;8.73;;;;;;;;;;4993611;28;20178;-89
2021/09/21 00:34:43;;;;;;;13.30;8.80;;;;;;;;;;4994093;28;20197;-89
2021/09/21 00:37:49;;;;;;;10.80;7.70;;;;;;;;;;5004336;28;20521;-89
2021/09/21 00:40:53;;;;;;;15.10;8.73;;;;;;;;;;4992808;28;20201;-89
2021/09/21 00:43:58;;;;;;;12.40;9.50;;;;;;;;;;4993461;28;20182;-89
2021/09/21 00:47:03;;;;;;;9.80;8.07;;;;;;;;;;4992734;28;20182;-89
2021/09/21 00:50:08;;;;;;;11.10;8.83;;;;;;;;;;4992297;28;20229;-89
2021/09/21 00:53:12;;;;;;;9.93;8.27;;;;;;;;;;4992734;28;20660;-89
2021/09/21 00:56:16;;;;;;;12.03;8.27;;;;;;;;;;4982083;28;20181;-89
2021/09/21 00:59:21;;;;;;;11.53;9.20;;;;;;;;;;4992723;28;20217;-90
2021/09/21 01:02:25;;;;;;;12.90;9.40;;;;;;;;;;4993021;28;20182;-89
2021/09/21 01:05:32;;;;;;;10.07;7.97;;;;;;;;;;5003998;28;20173;-89
2021/09/21 01:08:40;;;;;;;11.00;9.13;;;;;;;;;;4981523;28;20640;-89
2021/09/21 01:11:49;;;;;;;11.17;9.13;;;;;;;;;;5003742;28;20621;-89
2021/09/21 01:14:54;;;;;;;12.90;8.77;;;;;;;;;;4981875;28;20186;-89
2021/09/21 01:17:58;;;;;;;13.07;9.10;;;;;;;;;;4992332;28;20181;-89
2021/09/21 01:21:08;;;;;;;15.70;9.23;;;;;;;;;;4981887;28;20173;-89
2021/09/21 01:24:15;;;;;;;12.17;9.53;;;;;;;;;;4992663;28;20182;-89
2021/09/21 01:27:19;;;;;;;12.27;9.40;;;;;;;;;;5003532;28;20178;-89
2021/09/21 01:30:23;;;;;;;11.63;9.20;;;;;;;;;;4991459;28;20229;-89
2021/09/21 01:33:45;;;;;;;11.50;9.33;;;;;;;;;;4994108;28;20189;-89
2021/09/21 01:36:49;;;;;;;12.07;10.00;;;;;;;;;;4992080;28;20190;-89
2021/09/21 01:39:54;;;;;;;10.03;8.67;;;;;;;;;;4980308;28;20216;-89
2021/09/21 01:42:58;;;;;;;12.00;9.87;;;;;;;;;;4991012;28;20178;-88
2021/09/21 01:46:02;;;;;;;11.73;9.20;;;;;;;;;;4990664;28;20178;-88
2021/09/21 01:49:06;;;;;;;13.83;9.77;;;;;;;;;;4979637;28;20217;-88
2021/09/21 01:52:26;;;;;;;12.47;9.37;;;;;;;;;;4990831;28;20190;-89
2021/09/21 01:58:47;;;;;;;10.77;9.37;;;;;;;;;;4992767;28;20628;-89
2021/09/21 02:01:50;;;;;;;13.30;9.03;;;;;;;;;;4992333;28;20621;-89
2021/09/21 02:04:57;;;;;;;12.20;9.20;;;;;;;;;;4991430;28;20197;-89
2021/09/21 02:08:01;;;;;;;12.63;9.33;;;;;;;;;;4980384;28;20197;-89
2021/09/21 02:11:05;;;;;;;13.80;9.83;;;;;;;;;;4979976;28;20201;-89
2021/09/21 02:14:13;;;;;;;11.53;9.17;;;;;;;;;;4991449;28;20529;-89
2021/09/21 02:17:17;;;;;;;12.83;9.23;;;;;;;;;;4991379;28;20181;-89
2021/09/21 02:20:21;;;;;;;12.90;9.23;;;;;;;;;;4990965;28;20549;-89
2021/09/21 02:23:26;;;;;;;10.60;9.20;;;;;;;;;;4979881;28;20197;-89
2021/09/21 02:26:30;;;;;;;10.57;9.47;;;;;;;;;;4980233;28;20178;-89
2021/09/21 02:29:35;;;;;;;12.00;9.57;;;;;;;;;;4979666;28;20229;-89
2021/09/21 02:32:40;;;;;;;14.47;10.03;;;;;;;;;;4991099;28;20201;-89
2021/09/21 02:35:44;;;;;;;11.80;10.23;;;;;;;;;;5002140;28;20185;-89
2021/09/21 02:38:48;;;;;;;12.10;9.77;;;;;;;;;;4990520;28;20228;-89
2021/09/21 02:41:52;;;;;;;11.93;9.87;;;;;;;;;;5002235;28;20189;-89
2021/09/21 02:44:56;;;;;;;11.47;9.70;;;;;;;;;;4979875;28;20205;-89
2021/09/21 02:48:00;;;;;;;13.30;9.87;;;;;;;;;;5001872;28;20537;-89
2021/09/21 02:51:05;;;;;;;11.47;9.23;;;;;;;;;;4990726;28;20205;-89
2021/09/21 02:54:10;;;;;;;11.70;9.63;;;;;;;;;;4991273;28;20633;-89
2021/09/21 02:57:14;;;;;;;11.33;8.97;;;;;;;;;;4991481;28;20196;-89
2021/09/21 03:00:25;;;;;;;11.93;9.63;;;;;;;;;;5001933;28;20208;-89
2021/09/21 03:03:33;;;;;;;15.37;9.77;;;;;;;;;;4980041;28;20182;-89
2021/09/21 03:06:42;;;;;;;11.97;9.37;;;;;;;;;;4990462;28;20181;-89
2021/09/21 03:19:17;;;;;;;16.03;10.47;;;;;;;;;;4990613;28;20228;-89
2021/09/21 03:22:22;;;;;;;12.17;10.17;;;;;;;;;;4979123;28;20678;-89
2021/09/21 03:25:26;;;;;;;12.07;10.23;;;;;;;;;;5002054;28;20196;-89
2021/09/21 03:28:30;;;;;;;12.90;9.63;;;;;;;;;;4990326;28;20193;-89
2021/09/21 03:31:34;;;;;;;13.97;9.80;;;;;;;;;;5033146;23;20235;-75
2021/09/21 03:34:39;;;;;;;13.07;10.27;;;;;;;;;;5013281;28;20636;-75
2021/09/21 03:37:43;;;;;;;10.93;9.43;;;;;;;;;;5013790;28;20189;-75
2021/09/21 03:40:47;;;;;;;10.83;9.40;;;;;;;;;;5046855;28;20200;-75
2021/09/21 03:43:51;;;;;;;15.07;10.43;;;;;;;;;;5036147;28;20205;-76
2021/09/21 03:46:55;;;;;;;19.23;11.53;;;;;;;;;;5023112;28;20200;-76
2021/09/21 03:49:59;;;;;;;12.47;10.80;;;;;;;;;;5044313;28;20227;-76
2021/09/21 03:53:03;;;;;;;14.53;10.53;;;;;;;;;;5036665;28;20192;-76
2021/09/21 03:56:07;;;;;;;12.53;9.73;;;;;;;;;;5032713;28;20199;-76
2021/09/21 03:59:12;;;;;;;14.10;10.10;;;;;;;;;;5015261;28;20189;-76
2021/09/21 04:02:16;;;;;;;12.57;10.13;;;;;;;;;;5017126;28;20224;-76
2021/09/21 04:05:20;;;;;;;15.80;10.67;;;;;;;;;;5016307;28;20204;-75
2021/09/21 04:08:24;;;;;;;15.73;11.77;;;;;;;;;;5036671;28;20651;-76
2021/09/21 04:11:28;;;;;;;14.17;10.37;;;;;;;;;;5036128;28;20227;-75
2021/09/21 04:14:33;;;;;;;14.40;10.60;;;;;;;;;;5031867;28;20211;-75
2021/09/21 04:17:37;;;;;;;13.87;10.63;;;;;;;;;;5034760;28;20220;-76
2021/09/21 04:20:41;;;;;;;13.03;11.23;;;;;;;;;;5036727;28;20207;-75
2021/09/21 04:23:46;;;;;;;16.70;12.20;;;;;;;;;;5018609;28;20193;-74
2021/09/21 04:26:49;;;;;;;22.50;10.73;;;;;;;;;;5035990;28;20195;-74
2021/09/21 04:29:59;;;;;;;13.50;11.03;;;;;;;;;;5035906;28;20187;-74
2021/09/21 04:33:03;;;;;;;15.93;11.33;;;;;;;;;;5035014;28;20192;-74
2021/09/21 04:36:10;;;;;;;13.63;10.47;;;;;;;;;;5036147;28;20184;-74
2021/09/21 04:39:14;;;;;;;15.43;9.53;;;;;;;;;;5055895;28;20183;-74
2021/09/21 04:42:22;;;;;;;12.97;9.43;;;;;;;;;;5055479;28;20211;-74
2021/09/21 04:45:26;;;;;;;12.80;9.97;;;;;;;;;;5056338;28;20180;-74
2021/09/21 04:48:30;;;;;;;30.70;10.50;;;;;;;;;;5055646;28;20199;-74
2021/09/21 04:51:34;;;;;;;11.27;8.80;;;;;;;;;;5043098;28;20231;-74
2021/09/21 04:54:39;;;;;;;19.43;9.93;;;;;;;;;;5043105;28;20199;-74
2021/09/21 04:57:43;;;;;;;12.37;9.50;;;;;;;;;;5055507;28;20200;-74
2021/09/21 05:00:47;;;;;;;13.33;10.40;;;;;;;;;;5054635;28;20184;-74
2021/09/21 05:03:51;;;;;;;17.33;10.23;;;;;;;;;;5055543;28;20184;-74
2021/09/21 05:06:55;;;;;;;13.53;10.23;;;;;;;;;;5055337;28;20541;-74
2021/09/21 05:09:59;;;;;;;13.13;10.70;;;;;;;;;;5055646;28;20527;-74
2021/09/21 05:13:03;;;;;;;12.23;9.93;;;;;;;;;;5055549;28;20531;-74
2021/09/21 05:16:07;;;;;;;12.67;10.53;;;;;;;;;;5042935;28;20204;-74
2021/09/21 05:19:11;;;;;;;12.77;9.83;;;;;;;;;;5054790;28;20199;-74
2021/09/21 05:22:16;;;;;;;12.47;10.20;;;;;;;;;;5042655;28;20216;-74
2021/09/21 05:25:21;;;;;;;11.23;9.40;;;;;;;;;;5054983;28;20206;-73
2021/09/21 05:28:25;;;;;;;13.13;9.30;;;;;;;;;;5054692;28;20535;-74
2021/09/21 05:31:29;;;;;;;13.20;9.77;;;;;;;;;;5054607;28;20706;-74
2021/09/21 05:34:33;;;;;;;12.93;9.77;;;;;;;;;;5054222;28;20207;-74
2021/09/21 05:37:37;;;;;;;12.10;9.90;;;;;;;;;;5054760;28;20196;-74
2021/09/21 05:40:42;;;;;;;12.77;10.87;;;;;;;;;;5054557;28;20192;-74
2021/09/21 05:43:46;;;;;;;13.03;10.23;;;;;;;;;;5042161;28;20206;-74
2021/09/21 05:46:50;;;;;;;11.30;10.10;;;;;;;;;;5054594;28;20189;-74
2021/09/21 05:49:54;;;;;;;12.70;10.10;;;;;;;;;;5054577;28;20656;-74
2021/09/21 05:52:58;;;;;;;16.07;9.93;;;;;;;;;;5054728;28;20175;-74
2021/09/21 05:56:02;;;;;;;22.77;10.63;;;;;;;;;;5054174;28;20526;-74
2021/09/21 05:59:08;;;;;;;13.03;9.70;;;;;;;;;;5054302;28;20650;-74
2021/09/21 06:02:12;;;;;;;13.03;10.17;;;;;;;;;;5054204;28;20678;-74
2021/09/21 06:05:16;;;;;;;16.60;11.20;;;;;;;;;;5053951;28;20183;-74
2021/09/21 06:08:20;;;;;;;21.67;11.03;;;;;;;;;;5041886;28;20191;-73
2021/09/21 06:11:29;;;;;;;16.63;10.20;;;;;;;;;;5044833;28;20239;-74
2021/09/21 06:14:33;;;;;;;27.40;11.17;;;;;;;;;;5034717;28;20220;-74
2021/09/21 06:17:38;;;;;;;13.90;10.33;;;;;;;;;;5033901;28;20658;-74
2021/09/21 06:20:42;;;;;;;13.53;10.67;;;;;;;;;;5033219;28;20184;-74
2021/09/21 06:23:47;;;;;;;14.27;10.20;;;;;;;;;;5044732;28;20200;-74
2021/09/21 06:26:51;;;;;;;21.30;10.67;;;;;;;;;;5033695;28;20548;-74
2021/09/21 06:29:55;;;;;;;13.70;9.50;;;;;;;;;;5046817;28;20297;-74
2021/09/21 06:32:59;;;;;;;14.70;9.30;;;;;;;;;;5053089;28;20181;-74
2021/09/21 06:36:03;;;;;;;16.57;9.67;;;;;;;;;;5053676;28;20549;-73
2021/09/21 06:39:08;;;;;;;12.67;9.33;;;;;;;;;;5053756;28;20176;-73
2021/09/21 06:42:13;;;;;;;12.33;9.30;;;;;;;;;;5053418;28;20219;-74
2021/09/21 06:45:17;;;;;;;41.90;11.40;;;;;;;;;;5053685;28;20185;-74
2021/09/21 06:48:21;;;;;;;12.77;9.63;;;;;;;;;;5041649;28;20653;-74
2021/09/21 06:51:25;;;;;;;11.77;9.07;;;;;;;;;;5053114;28;20216;-74
2021/09/21 06:54:31;;;;;;;14.23;7.80;;;;;;;;;;5053279;28;20195;-74
2021/09/21 06:57:36;;;;;;;11.10;8.97;;;;;;;;;;5053479;28;20184;-74
2021/09/21 07:00:42;;;;;;;13.83;11.50;;;;;;;;;;5053465;28;20176;-74
2021/09/21 07:03:46;;;;;;;14.00;9.97;;;;;;;;;;5053470;28;20199;-75
2021/09/21 07:06:50;;;;;;;14.37;10.77;;;;;;;;;;5053279;28;20180;-74
2021/09/21 07:09:54;;;;;;;19.27;11.10;;;;;;;;;;5053191;28;20203;-75
2021/09/21 07:12:59;;;;;;;12.00;10.33;;;;;;;;;;5049516;28;20697;-74
2021/09/21 07:16:04;;;;;;;14.57;10.07;;;;;;;;;;5041787;28;20200;-74
2021/09/21 07:19:09;;;;;;;12.43;9.90;;;;;;;;;;5033532;28;20188;-74
2021/09/21 07:22:13;;;;;;;11.53;9.60;;;;;;;;;;5043700;28;20224;-75
2021/09/21 07:25:18;;;;;;;14.67;10.00;;;;;;;;;;5036122;28;20196;-74
2021/09/21 07:28:22;;;;;;;12.53;10.20;;;;;;;;;;5037008;28;20563;-74
2021/09/21 07:31:27;;;;;;;14.07;9.50;;;;;;;;;;5036959;28;20235;-74
2021/09/21 07:34:31;;;;;;;13.43;9.57;;;;;;;;;;5017175;28;20648;-75
2021/09/21 07:37:35;;;;;;;15.57;10.10;;;;;;;;;;5017397;28;20501;-74
2021/09/21 07:40:40;;;;;;;15.33;10.00;;;;;;;;;;5017438;28;20628;-75
2021/09/21 07:43:45;;;;;;;13.00;10.27;;;;;;;;;;5017515;28;20181;-74
2021/09/21 07:46:49;;;;;;;14.03;10.90;;;;;;;;;;5005415;28;20635;-75
2021/09/21 07:49:53;;;;;;;12.50;10.47;;;;;;;;;;5017170;28;20192;-74
2021/09/21 07:52:57;;;;;;;12.87;9.83;;;;;;;;;;5002597;28;20525;-75
2021/09/21 07:56:04;;;;;;;16.53;9.70;;;;;;;;;;5001242;28;20186;-75
2021/09/21 07:59:08;;;;;;;12.63;9.67;;;;;;;;;;5001198;28;20177;-75
2021/09/21 08:02:13;;;;;;;11.57;8.90;;;;;;;;;;5013123;28;20224;-75
2021/09/21 08:05:20;;;;;;;14.83;9.53;;;;;;;;;;5012160;28;20197;-75
2021/09/21 08:08:24;;;;;;;11.53;9.20;;;;;;;;;;5012827;28;20197;-74
2021/09/21 08:11:28;;;;;;;11.00;9.37;;;;;;;;;;5012912;28;20224;-75
2021/09/21 08:14:37;;;;;;;14.53;9.30;;;;;;;;;;5001023;28;20189;-75
2021/09/21 08:17:41;;;;;;;13.60;9.67;;;;;;;;;;5011706;28;20185;-75
2021/09/21 08:20:45;;;;;;;17.43;9.23;;;;;;;;;;5011968;28;20181;-74
2021/09/21 08:23:49;;;;;;;13.40;10.07;;;;;;;;;;5012049;28;20177;-75
2021/09/21 08:26:54;;;;;;;9.70;8.70;;;;;;;;;;5011884;28;20192;-74
2021/09/21 08:29:57;;;;;;;11.53;9.40;;;;;;;;;;5011272;28;20663;-74
2021/09/21 08:33:02;;;;;;;15.00;9.27;;;;;;;;;;5011352;28;20221;-74
2021/09/21 08:36:07;;;;;;;12.57;10.60;;;;;;;;;;5011374;28;20415;-74
2021/09/21 08:39:12;;;;;;;10.97;9.20;;;;;;;;;;5000203;28;20683;-74
2021/09/21 08:42:17;;;;;;;14.77;9.33;;;;;;;;;;5012032;28;20205;-74
2021/09/21 08:45:22;;;;;;;12.97;9.40;;;;;;;;;;5012156;28;20185;-74
2021/09/21 08:48:26;;;;;;;14.07;9.07;;;;;;;;;;5012118;28;20177;-74
2021/09/21 08:51:31;;;;;;;13.20;9.27;;;;;;;;;;5011965;28;20691;-74
2021/09/21 08:54:35;;;;;;;13.90;9.37;;;;;;;;;;5015673;28;20204;-75
2021/09/21 08:57:41;;;;;;;10.00;8.80;;;;;;;;;;5015599;28;20645;-75
2021/09/21 09:00:45;;;;;;;14.93;9.90;;;;;;;;;;5019435;28;20204;-75
2021/09/21 09:03:54;;;;;;;12.10;9.73;;;;;;;;;;4999965;28;20189;-74
2021/09/21 09:06:59;;;;;;;10.53;9.33;;;;;;;;;;5011120;28;20212;-75
2021/09/21 09:10:05;;;;;;;19.83;8.90;;;;;;;;;;5031788;28;20189;-75
2021/09/21 09:13:18;;;;;;;11.13;8.13;;;;;;;;;;5011721;28;20213;-74
2021/09/21 09:16:25;;;;;;;9.23;7.30;;;;;;;;;;5011061;28;20201;-75
2021/09/21 09:19:55;;;;;;;7.93;7.13;;;;;;;;;;5011819;28;20182;-75
2021/09/21 09:23:00;;;;;;;15.13;7.73;;;;;;;;;;5020256;28;20196;-75
2021/09/21 09:26:06;;;;;;;12.30;8.17;;;;;;;;;;5019164;28;20205;-74
2021/09/21 09:29:14;;;;;;;13.80;8.57;;;;;;;;;;5030267;28;20189;-74
2021/09/21 09:32:19;;;;;;;13.20;8.03;;;;;;;;;;5031272;28;20229;-75
2021/09/21 09:35:34;;;;;;;9.27;7.00;;;;;;;;;;5031222;28;20181;-75
2021/09/21 09:38:41;;;;;;;10.67;7.40;;;;;;;;;;5030491;28;20177;-75
2021/09/21 09:41:48;;;;;;;7.77;6.97;;;;;;;;;;5030767;28;20220;-74
2021/09/21 09:44:52;;;;;;;7.17;6.47;;;;;;;;;;5030971;28;20655;-74
2021/09/21 09:47:58;;;;;;;13.97;6.67;;;;;;;;;;5030796;28;20521;-75
2021/09/21 09:51:02;;;;;;;7.10;6.40;;;;;;;;;;5007702;28;20217;-75
2021/09/21 09:54:06;;;;;;;6.70;6.00;;;;;;;;;;5014335;28;20560;-74
2021/09/21 09:57:12;;;;;;;10.07;5.80;;;;;;;;;;5011068;28;20189;-75
2021/09/21 10:00:16;;;;;;;6.07;5.47;;;;;;;;;;5011017;28;20177;-75
2021/09/21 10:03:21;;;;;;;4.73;4.30;;;;;;;;;;5011115;28;20181;-74
2021/09/21 10:06:25;;;;;;;5.27;4.03;;;;;;;;;;5010431;28;20190;-74
2021/09/21 10:09:29;;;;;;;6.23;4.03;;;;;;;;;;5010864;28;20178;-75
2021/09/21 10:12:36;;;;;;;4.40;4.00;;;;;;;;;;4998634;28;20217;-74
2021/09/21 10:15:41;;;;;;;4.87;4.37;;;;;;;;;;5010793;28;20530;-74
2021/09/21 10:18:53;;;;;;;7.33;4.27;;;;;;;;;;5010337;28;20194;-74
2021/09/21 10:21:57;;;;;;;6.20;5.43;;;;;;;;;;5010728;28;20221;-75
2021/09/21 10:25:05;;;;;;;108.47;11.23;;;;;;;;;;5010456;28;20181;-75
2021/09/21 10:28:18;;;;;;;8.70;5.60;;;;;;;;;;5010520;28;20533;-75
2021/09/21 10:31:22;;;;;;;6.53;5.10;;;;;;;;;;5010395;28;20229;-75
2021/09/21 10:34:38;;;;;;;12.77;5.60;;;;;;;;;;5010483;28;20173;-75
2021/09/21 10:37:42;;;;;;;8.80;5.87;;;;;;;;;;5010678;28;20182;-74
2021/09/21 10:40:51;;;;;;;6.00;5.43;;;;;;;;;;5009168;28;20201;-75
2021/09/21 10:44:07;;;;;;;7.63;5.93;;;;;;;;;;5010316;28;20186;-74
2021/09/21 10:47:20;;;;;;;6.50;5.77;;;;;;;;;;5010409;28;20177;-75
2021/09/21 10:50:25;;;;;;;5.57;4.73;;;;;;;;;;5010271;28;20178;-75
2021/09/21 10:53:30;;;;;;;6.37;5.53;;;;;;;;;;4997434;28;20212;-75
2021/09/21 10:56:39;;;;;;;6.33;4.63;;;;;;;;;;5010137;28;20181;-75
2021/09/21 11:00:16;;;;;;;4.97;4.47;;;;;;;;;;5009750;28;20205;-75
2021/09/21 11:03:24;;;;;;;5.40;4.53;;;;;;;;;;4990065;28;20189;-75
2021/09/21 11:06:29;;;;;;;8.93;5.30;;;;;;;;;;4998401;28;20197;-75
2021/09/21 11:09:33;;;;;;;4.80;4.30;;;;;;;;;;5003375;28;20189;-74
2021/09/21 11:12:45;;;;;;;6.47;5.33;;;;;;;;;;5014133;28;20216;-75
2021/09/21 11:15:49;;;;;;;6.90;5.50;;;;;;;;;;5010291;28;20202;-75
2021/09/21 11:18:56;;;;;;;27.60;5.60;;;;;;;;;;5009742;28;20186;-74
2021/09/21 11:22:06;;;;;;;11.50;5.57;;;;;;;;;;5011498;28;20248;-75
2021/09/21 11:25:12;;;;;;;5.23;4.73;;;;;;;;;;5016569;28;20652;-74
2021/09/21 11:28:17;;;;;;;5.23;4.73;;;;;;;;;;5013699;28;20189;-75
2021/09/21 11:31:21;;;;;;;7.20;4.57;;;;;;;;;;5009759;28;20225;-74
2021/09/21 11:34:30;;;;;;;5.80;4.80;;;;;;;;;;5011188;28;20189;-74
2021/09/21 11:37:35;;;;;;;42.57;6.53;;;;;;;;;;4997625;28;20189;-75
2021/09/21 11:40:43;;;;;;;5.40;4.80;;;;;;;;;;5010565;28;20189;-75
2021/09/21 11:43:48;;;;;;;6.20;5.07;;;;;;;;;;5029586;28;20180;-75
2021/09/21 11:46:57;;;;;;;9.27;5.00;;;;;;;;;;5029347;28;20197;-75
2021/09/21 11:50:06;;;;;;;7.73;4.50;;;;;;;;;;5017863;28;20184;-75
2021/09/21 11:53:13;;;;;;;9.97;5.07;;;;;;;;;;5010424;28;20209;-75
2021/09/21 11:56:21;;;;;;;5.93;4.93;;;;;;;;;;5002038;28;20201;-75
2021/09/21 11:59:25;;;;;;;6.43;4.70;;;;;;;;;;5000995;28;20198;-75
2021/09/21 12:02:33;;;;;;;6.13;5.00;;;;;;;;;;5028247;28;20216;-75
2021/09/21 12:05:41;;;;;;;5.07;4.57;;;;;;;;;;5027016;28;21552;-75
2021/09/21 12:08:45;;;;;;;5.27;4.77;;;;;;;;;;5027813;28;20521;-75
2021/09/21 12:11:49;;;;;;;58.97;8.50;;;;;;;;;;5031109;28;20220;-75
2021/09/21 12:14:58;;;;;;;9.67;5.40;;;;;;;;;;5030674;28;20185;-75
2021/09/21 12:18:06;;;;;;;8.90;5.13;;;;;;;;;;5025540;28;20202;-75
2021/09/21 12:21:13;;;;;;;7.50;4.93;;;;;;;;;;5019906;28;20216;-75
2021/09/21 12:24:17;;;;;;;8.80;5.57;;;;;;;;;;5012707;28;20633;-75
2021/09/21 12:27:24;;;;;;;7.10;5.27;;;;;;;;;;5012084;28;20201;-75
2021/09/21 12:30:31;;;;;;;9.33;4.43;;;;;;;;;;5030416;28;20549;-75
2021/09/21 12:33:37;;;;;;;22.67;5.80;;;;;;;;;;5023648;28;20208;-75
2021/09/21 12:36:44;;;;;;;5.27;4.60;;;;;;;;;;5029086;28;20209;-75
2021/09/21 12:39:57;;;;;;;6.87;5.20;;;;;;;;;;5000520;28;20205;-75
2021/09/21 12:43:05;;;;;;;6.70;4.77;;;;;;;;;;5019023;28;20196;-75
2021/09/21 12:46:10;;;;;;;12.77;5.37;;;;;;;;;;5023533;28;20209;-75
2021/09/21 12:49:16;;;;;;;5.00;4.43;;;;;;;;;;5012237;28;20205;-75
2021/09/21 12:52:31;;;;;;;6.53;4.20;;;;;;;;;;5000481;28;20240;-75
2021/09/21 12:55:42;;;;;;;6.77;4.40;;;;;;;;;;5012128;28;20205;-75
2021/09/21 12:58:46;;;;;;;5.00;4.50;;;;;;;;;;5015067;28;20201;-76
2021/09/21 13:01:53;;;;;;;8.80;4.53;;;;;;;;;;5064806;22;20231;-73
2021/09/21 13:04:57;;;;;;;7.57;4.60;;;;;;;;;;5063164;28;20179;-74
2021/09/21 13:08:02;;;;;;;10.70;4.57;;;;;;;;;;5062792;28;20199;-74
2021/09/21 13:11:07;;;;;;;10.20;4.80;;;;;;;;;;5050135;28;20217;-74
2021/09/21 13:14:11;;;;;;;6.03;4.63;;;;;;;;;;5032800;28;20211;-75
2021/09/21 13:17:15;;;;;;;6.33;4.50;;;;;;;;;;5046588;28;20204;-75
2021/09/21 13:20:24;;;;;;;6.13;4.13;;;;;;;;;;5050975;28;20204;-75
2021/09/21 13:23:28;;;;;;;7.53;4.67;;;;;;;;;;5042433;28;20181;-75
2021/09/21 13:26:33;;;;;;;8.43;4.10;;;;;;;;;;5037931;28;20187;-75
2021/09/21 13:29:37;;;;;;;4.57;4.13;;;;;;;;;;5032196;28;20659;-75
2021/09/21 13:32:42;;;;;;;5.80;4.57;;;;;;;;;;5034529;28;20224;-74
2021/09/21 13:35:47;;;;;;;5.40;4.33;;;;;;;;;;5022488;28;20185;-76
2021/09/21 13:38:51;;;;;;;6.30;4.20;;;;;;;;;;5028981;28;20204;-75
2021/09/21 13:41:55;;;;;;;7.47;4.40;;;;;;;;;;5054408;28;20694;-76
2021/09/21 13:45:00;;;;;;;4.73;4.07;;;;;;;;;;5040785;28;20631;-76
2021/09/21 13:48:04;;;;;;;6.00;4.40;;;;;;;;;;5041140;28;20540;-76
2021/09/21 13:51:09;;;;;;;11.93;4.77;;;;;;;;;;5033281;28;20216;-79
2021/09/21 13:54:13;;;;;;;6.50;4.70;;;;;;;;;;5016336;28;20216;-76
2021/09/21 13:57:17;;;;;;;5.07;4.50;;;;;;;;;;5053287;28;20188;-76
2021/09/21 14:00:24;;;;;;;7.67;4.97;;;;;;;;;;5053809;28;20184;-77
2021/09/21 14:03:32;;;;;;;8.07;4.93;;;;;;;;;;5039928;28;20184;-75
2021/09/21 14:06:41;;;;;;;11.03;4.60;;;;;;;;;;5015196;28;20188;-75
2021/09/21 14:09:48;;;;;;;28.63;5.37;;;;;;;;;;5046501;28;20185;-76
2021/09/21 14:12:53;;;;;;;7.40;4.83;;;;;;;;;;5029785;28;20212;-75
2021/09/21 14:15:58;;;;;;;9.57;4.67;;;;;;;;;;5048345;28;20539;-76
2021/09/21 14:19:03;;;;;;;9.60;4.83;;;;;;;;;;5045397;28;20196;-76
2021/09/21 14:22:08;;;;;;;6.87;4.90;;;;;;;;;;5030306;28;20221;-76
2021/09/21 14:25:12;;;;;;;8.20;5.10;;;;;;;;;;5009893;28;20192;-76
2021/09/21 14:28:19;;;;;;;8.27;5.10;;;;;;;;;;5050165;28;20196;-76
2021/09/21 14:31:24;;;;;;;5.80;4.53;;;;;;;;;;5016527;28;20216;-76
2021/09/21 14:34:28;;;;;;;6.73;4.90;;;;;;;;;;5028161;28;20209;-76
2021/09/21 14:37:32;;;;;;;6.90;4.60;;;;;;;;;;5026394;28;20203;-76
2021/09/21 14:40:38;;;;;;;7.23;4.83;;;;;;;;;;5036378;28;20192;-76
2021/09/21 14:43:43;;;;;;;5.90;4.70;;;;;;;;;;5034348;28;20185;-76
2021/09/21 14:46:47;;;;;;;6.97;4.93;;;;;;;;;;5007534;28;20189;-76
2021/09/21 14:49:52;;;;;;;11.20;4.87;;;;;;;;;;5023962;28;20528;-76
2021/09/21 14:52:56;;;;;;;7.90;6.00;;;;;;;;;;5035804;28;20237;-76
2021/09/21 14:56:03;;;;;;;6.77;4.57;;;;;;;;;;5029881;28;20184;-76
2021/09/21 14:59:07;;;;;;;8.10;5.03;;;;;;;;;;5030083;28;20655;-75
2021/09/21 15:02:12;;;;;;;6.63;5.27;;;;;;;;;;5029628;28;20236;-76
2021/09/21 15:05:16;;;;;;;9.93;5.27;;;;;;;;;;5034796;28;20192;-76
2021/09/21 15:08:20;;;;;;;6.80;5.17;;;;;;;;;;5037434;28;20184;-76
2021/09/21 15:11:24;;;;;;;9.50;5.33;;;;;;;;;;5049899;28;20211;-76
2021/09/21 15:14:28;;;;;;;11.47;5.73;;;;;;;;;;5027329;28;20212;-76
2021/09/21 15:17:33;;;;;;;16.60;6.20;;;;;;;;;;5017857;28;20520;-76
2021/09/21 15:20:37;;;;;;;19.40;5.73;;;;;;;;;;5021930;28;20181;-76
2021/09/21 15:23:42;;;;;;;9.03;5.10;;;;;;;;;;5019395;28;20270;-76
2021/09/21 15:26:46;;;;;;;5.53;4.67;;;;;;;;;;5036035;28;20196;-76
2021/09/21 15:29:51;;;;;;;7.93;5.27;;;;;;;;;;5031933;28;20192;-77
2021/09/21 15:32:55;;;;;;;7.63;5.03;;;;;;;;;;5017347;28;20228;-77
2021/09/21 15:36:00;;;;;;;36.90;6.63;;;;;;;;;;5027660;28;20540;-77
2021/09/21 15:39:06;;;;;;;12.43;4.70;;;;;;;;;;5043234;28;20188;-74
2021/09/21 15:42:10;;;;;;;9.27;5.10;;;;;;;;;;5022965;28;20223;-74
2021/09/21 15:45:16;;;;;;;11.03;6.17;;;;;;;;;;5033560;28;20184;-75
2021/09/21 15:48:20;;;;;;;8.27;5.23;;;;;;;;;;5040253;28;20185;-76
2021/09/21 15:51:25;;;;;;;7.53;5.13;;;;;;;;;;5040480;28;20208;-75
2021/09/21 15:54:33;;;;;;;13.80;5.27;;;;;;;;;;5011834;28;20213;-75
2021/09/21 15:57:37;;;;;;;6.37;5.27;;;;;;;;;;5038502;28;20189;-76
2021/09/21 16:00:41;;;;;;;6.97;5.23;;;;;;;;;;5031347;28;20184;-76
2021/09/21 16:03:45;;;;;;;5.80;5.20;;;;;;;;;;5010658;28;20185;-75
2021/09/21 16:06:50;;;;;;;5.17;4.67;;;;;;;;;;5020877;28;20184;-76
2021/09/21 16:09:55;;;;;;;18.30;5.37;;;;;;;;;;5049705;28;20658;-76
2021/09/21 16:13:00;;;;;;;19.13;5.60;;;;;;;;;;5026570;28;20179;-76
2021/09/21 16:16:05;;;;;;;16.60;5.53;;;;;;;;;;5020328;28;20189;-75
2021/09/21 16:19:09;;;;;;;8.90;5.20;;;;;;;;;;5026829;28;20189;-75
2021/09/21 16:22:13;;;;;;;7.37;5.80;;;;;;;;;;5037210;28;20227;-75
2021/09/21 16:25:18;;;;;;;9.17;5.57;;;;;;;;;;5030767;28;20188;-75
2021/09/21 16:28:22;;;;;;;9.70;5.17;;;;;;;;;;5034959;28;20200;-75
2021/09/21 16:31:27;;;;;;;5.60;4.97;;;;;;;;;;5020265;28;20762;-76
2021/09/21 16:34:31;;;;;;;7.37;5.07;;;;;;;;;;5019752;28;20205;-76
2021/09/21 16:37:35;;;;;;;26.07;10.73;;;;;;;;;;5008871;28;20180;-75
2021/09/21 16:40:48;;;;;;;6.07;5.27;;;;;;;;;;5019969;28;20192;-75
2021/09/21 16:43:53;;;;;;;5.70;5.03;;;;;;;;;;5020655;28;20192;-74
2021/09/21 16:46:59;;;;;;;6.03;5.43;;;;;;;;;;5020726;28;20193;-75
2021/09/21 16:50:05;;;;;;;5.60;5.10;;;;;;;;;;5019909;28;20651;-73
2021/09/21 16:53:10;;;;;;;7.40;5.40;;;;;;;;;;5009551;28;20192;-74
2021/09/21 16:56:15;;;;;;;8.10;5.97;;;;;;;;;;5044609;28;20192;-73
2021/09/21 16:59:19;;;;;;;6.37;5.20;;;;;;;;;;5050297;28;20720;-73
2021/09/21 17:02:26;;;;;;;6.27;4.80;;;;;;;;;;5041145;28;20330;-71
2021/09/21 17:05:30;;;;;;;6.23;5.30;;;;;;;;;;5050752;28;20627;-71
2021/09/21 17:08:34;;;;;;;5.03;4.53;;;;;;;;;;5031655;28;20199;-71
2021/09/21 17:11:39;;;;;;;6.73;4.53;;;;;;;;;;5009528;28;20916;-72
2021/09/21 17:14:43;;;;;;;8.50;4.57;;;;;;;;;;5029357;28;20209;-73
2021/09/21 17:17:47;;;;;;;8.20;4.97;;;;;;;;;;5050710;28;20188;-72
2021/09/21 17:20:51;;;;;;;7.50;5.00;;;;;;;;;;5046667;28;20201;-72
2021/09/21 17:23:57;;;;;;;5.90;5.30;;;;;;;;;;5020467;28;20185;-74
2021/09/21 17:27:01;;;;;;;7.00;5.50;;;;;;;;;;5023755;28;20192;-73
2021/09/21 17:30:07;;;;;;;8.33;6.60;;;;;;;;;;5031397;28;20529;-73
2021/09/21 17:33:11;;;;;;;9.43;7.27;;;;;;;;;;5038220;28;20184;-73
2021/09/21 17:36:15;;;;;;;10.10;6.83;;;;;;;;;;5043343;28;20184;-73
2021/09/21 17:39:19;;;;;;;7.63;6.07;;;;;;;;;;5049458;28;20195;-73
2021/09/21 17:42:36;;;;;;;6.60;5.67;;;;;;;;;;5031156;28;20220;-73
2021/09/21 17:45:41;;;;;;;12.97;5.27;;;;;;;;;;5025891;28;20196;-73
2021/09/21 17:48:45;;;;;;;7.20;6.00;;;;;;;;;;5035421;28;20196;-73
2021/09/21 17:51:49;;;;;;;6.97;5.80;;;;;;;;;;5031041;28;20224;-74
2021/09/21 17:54:53;;;;;;;7.37;5.70;;;;;;;;;;5031308;28;20212;-73
2021/09/21 17:57:58;;;;;;;6.07;5.47;;;;;;;;;;5050231;28;20188;-76
2021/09/21 18:01:02;;;;;;;8.13;5.23;;;;;;;;;;5036880;28;20228;-76
2021/09/21 18:04:07;;;;;;;6.50;5.83;;;;;;;;;;5021179;28;20193;-76
2021/09/21 18:07:11;;;;;;;9.77;6.27;;;;;;;;;;5049035;28;20196;-76
2021/09/21 18:10:18;;;;;;;6.70;5.83;;;;;;;;;;5039825;28;20525;-76
2021/09/21 18:13:25;;;;;;;34.47;7.80;;;;;;;;;;5022168;28;20216;-75
2021/09/21 18:16:41;;;;;;;43.77;8.97;;;;;;;;;;5037531;28;20200;-76
2021/09/21 18:20:04;;;;;;;10.37;7.00;;;;;;;;;;5037388;28;20193;-74
2021/09/21 18:23:20;;;;;;;8.27;6.20;;;;;;;;;;5018272;28;20189;-76
2021/09/21 18:26:24;;;;;;;11.83;7.80;;;;;;;;;;5018685;28;20186;-76
2021/09/21 18:29:28;;;;;;;10.67;7.27;;;;;;;;;;5019817;28;20193;-76
2021/09/21 18:32:33;;;;;;;8.60;7.23;;;;;;;;;;5018965;28;20212;-75